createdAt,value
2018-09-12T00:01:01.177Z,99.9
2018-09-12T00:02:08.387Z,99.9
2018-09-12T00:03:15.596Z,99.9
2018-09-12T00:04:22.813Z,99.9
2018-09-12T00:05:30.023Z,99.9
2018-09-12T00:06:37.237Z,99.9
2018-09-12T00:07:44.447Z,99.9
2018-09-12T00:08:51.659Z,99.9
2018-09-12T00:09:58.867Z,99.9
2018-09-12T00:11:05.882Z,99.9
2018-09-12T00:12:13.096Z,99.9
2018-09-12T00:13:20.030Z,99.9
2018-09-12T00:14:27.250Z,99.9
2018-09-12T00:15:34.175Z,99.9
2018-09-12T00:16:41.388Z,99.9
2018-09-12T00:17:48.602Z,99.9
2018-09-12T00:18:55.817Z,99.9
2018-09-12T00:20:03.039Z,99.9
2018-09-12T00:21:10.342Z,99.9
2018-09-12T00:22:17.893Z,99.9
2018-09-12T00:23:25.101Z,99.9
2018-09-12T00:24:32.312Z,99.9
2018-09-12T00:25:39.520Z,99.9
2018-09-12T00:26:46.735Z,99.9
2018-09-12T00:27:53.939Z,99.9
2018-09-12T00:29:01.156Z,99.9
2018-09-12T00:30:08.367Z,99.9
2018-09-12T00:31:15.575Z,99.9
2018-09-12T00:32:22.791Z,99.9
2018-09-12T00:33:29.999Z,99.9
2018-09-12T00:34:37.209Z,99.9
2018-09-12T00:35:44.421Z,99.9
2018-09-12T00:36:51.635Z,99.9
2018-09-12T00:37:58.847Z,99.9
2018-09-12T00:39:06.056Z,99.9
2018-09-12T00:40:13.269Z,99.9
2018-09-12T00:41:20.498Z,99.9
2018-09-12T00:42:27.434Z,99.9
2018-09-12T00:43:34.649Z,99.9
2018-09-12T00:44:41.857Z,99.9
2018-09-12T00:45:49.067Z,99.9
2018-09-12T00:46:56.278Z,99.9
2018-09-12T00:48:03.484Z,99.9
2018-09-12T00:49:10.698Z,99.9
2018-09-12T00:50:17.909Z,99.9
2018-09-12T00:51:25.126Z,99.9
2018-09-12T00:52:32.336Z,99.9
2018-09-12T00:53:39.547Z,99.9
2018-09-12T00:54:46.485Z,99.9
2018-09-12T00:55:53.694Z,99.9
2018-09-12T00:57:00.364Z,99.9
2018-09-12T00:58:07.579Z,99.9
2018-09-12T00:59:14.799Z,99.9
2018-09-12T01:00:21.739Z,99.9
2018-09-12T01:01:28.679Z,99.9
2018-09-12T01:02:35.885Z,99.9
2018-09-12T01:03:43.098Z,99.9
2018-09-12T01:04:50.310Z,99.9
2018-09-12T01:05:57.525Z,99.9
2018-09-12T01:07:04.729Z,99.9
2018-09-12T01:08:11.945Z,99.9
2018-09-12T01:09:18.897Z,99.9
2018-09-12T01:10:26.108Z,99.9
2018-09-12T01:11:33.036Z,99.9
2018-09-12T01:12:40.248Z,99.9
2018-09-12T01:13:47.456Z,99.9
2018-09-12T01:14:54.663Z,99.9
2018-09-12T01:16:01.879Z,99.9
2018-09-12T01:17:09.101Z,99.9
2018-09-12T01:18:16.311Z,99.9
2018-09-12T01:19:23.253Z,99.9
2018-09-12T01:20:30.463Z,99.9
2018-09-12T01:21:37.672Z,99.9
2018-09-12T01:22:44.881Z,99.9
2018-09-12T01:23:52.092Z,99.9
2018-09-12T01:24:59.298Z,99.9
2018-09-12T01:26:06.509Z,99.9
2018-09-12T01:27:13.718Z,99.9
2018-09-12T01:28:20.933Z,99.9
2018-09-12T01:29:28.146Z,99.9
2018-09-12T01:30:35.080Z,99.9
2018-09-12T01:31:42.289Z,99.9
2018-09-12T01:32:49.496Z,99.9
2018-09-12T01:33:56.707Z,99.9
2018-09-12T01:35:03.653Z,99.9
2018-09-12T01:36:10.581Z,99.9
2018-09-12T01:37:17.793Z,99.9
2018-09-12T01:38:25.002Z,99.9
2018-09-12T01:39:32.218Z,99.9
2018-09-12T01:40:39.428Z,99.9
2018-09-12T01:41:46.676Z,99.9
2018-09-12T01:42:53.889Z,99.9
2018-09-12T01:44:01.096Z,99.9
2018-09-12T01:45:08.315Z,99.9
2018-09-12T01:46:15.247Z,99.9
2018-09-12T01:47:22.213Z,99.9
2018-09-12T01:48:29.425Z,99.9
2018-09-12T01:49:36.637Z,99.9
2018-09-12T01:50:43.848Z,99.9
2018-09-12T01:51:51.064Z,99.9
2018-09-12T01:52:58.281Z,99.9
2018-09-12T01:54:05.492Z,99.9
2018-09-12T01:55:12.702Z,99.9
2018-09-12T01:56:19.953Z,99.9
2018-09-12T01:57:26.890Z,99.9
2018-09-12T01:58:34.098Z,99.9
2018-09-12T01:59:41.307Z,99.9
2018-09-12T02:00:48.523Z,99.9
2018-09-12T02:01:55.735Z,99.9
2018-09-12T02:03:02.668Z,99.9
2018-09-12T02:04:09.879Z,99.9
2018-09-12T02:05:17.089Z,99.9
2018-09-12T02:06:24.297Z,99.9
2018-09-12T02:07:31.235Z,99.9
2018-09-12T02:08:38.446Z,99.9
2018-09-12T02:09:45.658Z,99.9
2018-09-12T02:10:52.594Z,99.9
2018-09-12T02:11:59.811Z,99.9
2018-09-12T02:13:07.022Z,99.9
2018-09-12T02:14:14.238Z,99.9
2018-09-12T02:15:21.441Z,99.9
2018-09-12T02:16:28.651Z,99.9
2018-09-12T02:17:35.859Z,99.9
2018-09-12T02:18:42.796Z,99.9
2018-09-12T02:19:50.004Z,99.9
2018-09-12T02:20:57.215Z,99.9
2018-09-12T02:22:04.431Z,99.9
2018-09-12T02:23:11.641Z,99.9
2018-09-12T02:24:18.850Z,99.9
2018-09-12T02:25:26.067Z,99.9
2018-09-12T02:26:33.276Z,99.9
2018-09-12T02:27:40.485Z,99.9
2018-09-12T02:28:47.695Z,99.9
2018-09-12T02:29:54.907Z,99.9
2018-09-12T02:31:02.117Z,99.9
2018-09-12T02:32:09.323Z,99.9
2018-09-12T02:33:16.550Z,99.9
2018-09-12T02:34:23.749Z,99.9
2018-09-12T02:35:30.970Z,99.9
2018-09-12T02:36:38.178Z,99.9
2018-09-12T02:37:45.389Z,99.9
2018-09-12T02:38:52.601Z,99.9
2018-09-12T02:39:59.813Z,99.9
2018-09-12T02:41:07.018Z,99.9
2018-09-12T02:42:14.227Z,99.9
2018-09-12T02:43:21.429Z,99.9
2018-09-12T02:44:28.362Z,99.9
2018-09-12T02:45:35.569Z,99.9
2018-09-12T02:46:42.497Z,99.9
2018-09-12T02:47:49.705Z,99.9
2018-09-12T02:48:56.916Z,99.9
2018-09-12T02:50:04.125Z,99.9
2018-09-12T02:51:11.333Z,99.9
2018-09-12T02:52:18.538Z,99.9
2018-09-12T02:53:25.742Z,99.9
2018-09-12T02:54:32.953Z,99.9
2018-09-12T02:55:40.158Z,99.9
2018-09-12T02:58:08.964Z,99.9
2018-09-12T02:59:15.904Z,99.9
2018-09-12T03:00:23.120Z,99.9
2018-09-12T03:01:30.322Z,99.9
2018-09-12T03:02:36.987Z,99.9
2018-09-12T03:03:44.197Z,99.9
2018-09-12T03:04:51.404Z,99.9
2018-09-12T03:05:58.616Z,99.9
2018-09-12T03:07:05.824Z,99.9
2018-09-12T03:08:12.758Z,99.9
2018-09-12T03:09:19.670Z,99.9
2018-09-12T03:10:26.880Z,99.9
2018-09-12T03:11:34.091Z,99.9
2018-09-12T03:12:41.024Z,99.9
2018-09-12T03:13:48.238Z,99.9
2018-09-12T03:14:55.448Z,99.9
2018-09-12T03:16:02.654Z,99.9
2018-09-12T03:17:09.860Z,99.9
2018-09-12T03:18:17.069Z,99.9
2018-09-12T03:19:24.276Z,99.9
2018-09-12T03:20:31.639Z,99.9
2018-09-12T03:21:39.142Z,99.9
2018-09-12T03:22:46.356Z,99.9
2018-09-12T03:23:53.575Z,99.9
2018-09-12T03:25:00.780Z,99.9
2018-09-12T03:26:07.991Z,99.9
2018-09-12T03:27:15.206Z,99.9
2018-09-12T03:28:22.144Z,99.9
2018-09-12T03:29:29.403Z,99.9
2018-09-12T03:30:36.607Z,99.9
2018-09-12T03:31:43.817Z,99.9
2018-09-12T03:32:51.033Z,99.9
2018-09-12T03:33:57.688Z,99.9
2018-09-12T03:35:04.900Z,99.9
2018-09-12T03:36:12.111Z,99.9
2018-09-12T03:37:19.321Z,99.9
2018-09-12T03:38:26.530Z,99.9
2018-09-12T03:39:33.739Z,99.9
2018-09-12T03:40:40.944Z,99.9
2018-09-12T03:41:48.156Z,99.9
2018-09-12T03:42:55.093Z,99.9
2018-09-12T03:44:02.300Z,99.9
2018-09-12T03:45:09.509Z,99.9
2018-09-12T03:46:16.719Z,99.9
2018-09-12T03:47:23.932Z,99.9
2018-09-12T03:48:31.144Z,99.9
2018-09-12T03:49:38.355Z,99.9
2018-09-12T03:50:45.565Z,99.9
2018-09-12T03:51:52.775Z,99.9
2018-09-12T03:52:59.981Z,99.9
2018-09-12T03:54:07.214Z,99.9
2018-09-12T03:55:14.422Z,99.9
2018-09-12T03:56:21.644Z,99.9
2018-09-12T03:57:28.853Z,99.9
2018-09-12T03:58:36.062Z,99.9
2018-09-12T03:59:43.269Z,99.9
2018-09-12T04:00:50.490Z,99.9
2018-09-12T04:01:57.699Z,99.9
2018-09-12T04:03:04.904Z,99.9
2018-09-12T04:04:11.846Z,99.9
2018-09-12T04:05:19.055Z,99.9
2018-09-12T04:06:26.269Z,99.9
2018-09-12T04:07:33.481Z,99.9
2018-09-12T04:08:40.689Z,99.9
2018-09-12T04:09:47.620Z,99.9
2018-09-12T04:10:54.829Z,99.9
2018-09-12T04:12:01.764Z,99.9
2018-09-12T04:13:08.973Z,99.9
2018-09-12T04:14:16.179Z,99.9
2018-09-12T04:15:23.385Z,99.9
2018-09-12T04:16:30.592Z,99.9
2018-09-12T04:17:37.798Z,99.9
2018-09-12T04:18:45.005Z,99.9
2018-09-12T04:19:52.213Z,99.9
2018-09-12T04:20:59.429Z,99.9
2018-09-12T04:22:06.650Z,99.9
2018-09-12T04:23:13.848Z,99.9
2018-09-12T04:24:21.131Z,99.9
2018-09-12T04:25:28.355Z,99.9
2018-09-12T04:26:35.570Z,99.9
2018-09-12T04:27:42.785Z,99.9
2018-09-12T04:28:49.994Z,99.9
2018-09-12T04:29:57.205Z,99.9
2018-09-12T04:31:04.431Z,99.9
2018-09-12T04:32:11.639Z,99.9
2018-09-12T04:33:18.844Z,99.9
2018-09-12T04:34:26.064Z,99.9
2018-09-12T04:35:33.275Z,99.9
2018-09-12T04:36:40.204Z,99.9
2018-09-12T04:37:47.409Z,99.9
2018-09-12T04:38:54.619Z,99.9
2018-09-12T04:40:01.838Z,99.9
2018-09-12T04:41:09.048Z,99.9
2018-09-12T04:42:16.260Z,99.9
2018-09-12T04:43:23.467Z,99.9
2018-09-12T04:44:30.686Z,99.9
2018-09-12T04:45:37.895Z,99.9
2018-09-12T04:46:44.837Z,99.9
2018-09-12T04:47:52.046Z,99.9
2018-09-12T04:48:59.262Z,99.9
2018-09-12T04:50:06.469Z,99.9
2018-09-12T04:51:13.681Z,99.9
2018-09-12T04:52:20.893Z,99.9
2018-09-12T04:53:28.100Z,99.9
2018-09-12T04:54:35.311Z,99.9
2018-09-12T04:55:42.558Z,99.9
2018-09-12T04:56:49.767Z,99.9
2018-09-12T04:57:56.969Z,99.9
2018-09-12T04:59:04.177Z,99.9
2018-09-12T05:00:11.383Z,99.9
2018-09-12T05:01:18.600Z,99.9
2018-09-12T05:02:25.536Z,99.9
2018-09-12T05:03:32.744Z,99.9
2018-09-12T05:04:39.957Z,99.9
2018-09-12T05:05:47.168Z,99.9
2018-09-12T05:06:54.383Z,99.9
2018-09-12T05:08:01.589Z,99.9
2018-09-12T05:09:08.806Z,99.9
2018-09-12T05:10:16.026Z,99.9
2018-09-12T05:11:23.646Z,99.9
2018-09-12T05:12:30.859Z,99.9
2018-09-12T05:13:38.074Z,99.9
2018-09-12T05:14:45.288Z,99.9
2018-09-12T05:15:52.517Z,99.9
2018-09-12T05:16:59.871Z,99.9
2018-09-12T05:18:07.076Z,99.9
2018-09-12T05:19:14.285Z,99.9
2018-09-12T05:20:21.493Z,99.9
2018-09-12T05:21:28.431Z,99.9
2018-09-12T05:22:35.642Z,99.9
2018-09-12T05:23:42.854Z,99.9
2018-09-12T05:24:50.098Z,99.9
2018-09-12T05:25:57.306Z,99.9
2018-09-12T05:27:04.535Z,99.9
2018-09-12T05:28:11.746Z,99.9
2018-09-12T05:29:18.948Z,99.9
2018-09-12T05:30:26.153Z,99.9
2018-09-12T05:31:33.359Z,99.9
2018-09-12T05:32:40.569Z,99.9
2018-09-12T05:33:47.785Z,99.9
2018-09-12T05:34:54.714Z,99.9
2018-09-12T05:36:01.921Z,99.9
2018-09-12T05:37:09.135Z,99.9
2018-09-12T05:38:16.072Z,99.9
2018-09-12T05:39:23.014Z,99.9
2018-09-12T05:40:30.225Z,99.9
2018-09-12T05:41:37.442Z,99.9
2018-09-12T05:42:44.672Z,99.9
2018-09-12T05:43:51.885Z,99.9
2018-09-12T05:44:59.098Z,99.9
2018-09-12T05:46:06.308Z,99.9
2018-09-12T05:47:13.525Z,99.9
2018-09-12T05:48:20.736Z,99.9
2018-09-12T05:49:27.950Z,99.9
2018-09-12T05:50:35.173Z,99.9
2018-09-12T05:51:42.392Z,99.9
2018-09-12T05:52:49.609Z,99.9
2018-09-12T05:53:56.822Z,99.9
2018-09-12T05:55:04.027Z,99.9
2018-09-12T05:56:11.236Z,99.9
2018-09-12T05:57:18.444Z,99.9
2018-09-12T05:58:25.655Z,99.9
2018-09-12T05:59:32.864Z,99.9
2018-09-12T06:00:40.075Z,99.9
2018-09-12T06:01:47.290Z,99.9
2018-09-12T06:02:54.502Z,99.9
2018-09-12T06:04:01.710Z,99.9
2018-09-12T06:05:08.916Z,99.9
2018-09-12T06:06:16.188Z,99.9
2018-09-12T06:07:23.501Z,99.9
2018-09-12T06:08:30.899Z,99.9
2018-09-12T06:09:38.107Z,99.9
2018-09-12T06:10:45.047Z,99.9
2018-09-12T06:11:52.254Z,99.9
2018-09-12T06:12:59.461Z,99.9
2018-09-12T06:14:06.733Z,99.9
2018-09-12T06:15:14.187Z,99.9
2018-09-12T06:16:21.118Z,99.9
2018-09-12T06:17:28.329Z,99.9
2018-09-12T06:18:35.265Z,99.9
2018-09-12T06:19:42.199Z,99.9
2018-09-12T06:20:49.407Z,99.9
2018-09-12T06:21:56.351Z,99.9
2018-09-12T06:23:03.557Z,99.9
2018-09-12T06:24:10.768Z,99.9
2018-09-12T06:25:17.705Z,99.9
2018-09-12T06:26:24.662Z,99.9
2018-09-12T06:27:31.876Z,99.9
2018-09-12T06:28:38.814Z,99.9
2018-09-12T06:29:45.761Z,99.9
2018-09-12T06:30:52.998Z,99.9
2018-09-12T06:32:00.099Z,99.9
2018-09-12T06:33:07.035Z,99.9
2018-09-12T06:34:13.972Z,99.9
2018-09-12T06:35:21.188Z,99.9
2018-09-12T06:36:28.397Z,99.9
2018-09-12T06:37:35.609Z,99.9
2018-09-12T06:38:42.874Z,99.9
2018-09-12T06:39:50.371Z,99.9
2018-09-12T06:40:57.582Z,99.9
2018-09-12T06:42:04.791Z,99.9
2018-09-12T06:43:12.004Z,99.9
2018-09-12T06:44:19.214Z,99.9
2018-09-12T06:45:26.425Z,99.9
2018-09-12T06:46:33.637Z,99.9
2018-09-12T06:47:40.847Z,99.9
2018-09-12T06:48:48.056Z,99.9
2018-09-12T06:49:55.271Z,99.9
2018-09-12T06:51:02.482Z,99.9
2018-09-12T06:52:09.697Z,99.9
2018-09-12T06:53:16.942Z,99.9
2018-09-12T06:54:24.147Z,99.9
2018-09-12T06:55:31.093Z,99.9
2018-09-12T06:56:38.299Z,99.9
2018-09-12T06:57:45.241Z,99.9
2018-09-12T06:58:52.450Z,99.9
2018-09-12T06:59:59.662Z,99.9
2018-09-12T07:01:06.938Z,99.9
2018-09-12T07:02:14.465Z,99.9
2018-09-12T07:03:21.674Z,99.9
2018-09-12T07:04:28.883Z,99.9
2018-09-12T07:05:35.836Z,99.9
2018-09-12T07:06:43.044Z,99.9
2018-09-12T07:07:50.259Z,99.9
2018-09-12T07:08:57.477Z,99.9
2018-09-12T07:10:04.682Z,99.9
2018-09-12T07:11:11.894Z,99.9
2018-09-12T07:12:19.110Z,99.9
2018-09-12T07:13:26.321Z,99.9
2018-09-12T07:14:33.539Z,99.9
2018-09-12T07:15:40.746Z,99.9
2018-09-12T07:16:47.973Z,99.9
2018-09-12T07:17:55.200Z,99.9
2018-09-12T07:19:02.420Z,98.8
2018-09-12T07:20:09.634Z,99.9
2018-09-12T07:21:16.851Z,97.3
2018-09-12T07:22:23.789Z,94.9
2018-09-12T07:23:31.003Z,96.1
2018-09-12T07:24:38.270Z,96.9
2018-09-12T07:25:45.548Z,96.9
2018-09-12T07:26:52.754Z,92.3
2018-09-12T07:27:59.982Z,91.5
2018-09-12T07:29:07.196Z,86.1
2018-09-12T07:30:14.414Z,90.2
2018-09-12T07:31:21.355Z,93.8
2018-09-12T07:32:28.569Z,90.6
2018-09-12T07:33:35.784Z,82.2
2018-09-12T07:34:43.003Z,77.8
2018-09-12T07:35:50.250Z,86.8
2018-09-12T07:36:57.194Z,69
2018-09-12T07:38:04.406Z,71.1
2018-09-12T07:39:11.623Z,70.8
2018-09-12T07:40:18.836Z,76.7
2018-09-12T07:41:26.067Z,65.9
2018-09-12T07:42:33.276Z,67.1
2018-09-12T07:43:40.494Z,69.8
2018-09-12T07:44:47.718Z,65.6
2018-09-12T07:45:54.926Z,64.4
2018-09-12T07:47:02.157Z,70.5
2018-09-12T07:48:09.371Z,58.3
2018-09-12T07:49:16.585Z,60.5
2018-09-12T07:50:23.529Z,56.2
2018-09-12T07:51:30.742Z,65.7
2018-09-12T07:52:37.952Z,62
2018-09-12T07:53:45.187Z,60.7
2018-09-12T07:54:52.403Z,63.6
2018-09-12T07:55:59.651Z,52.9
2018-09-12T07:57:07.093Z,54.6
2018-09-12T07:58:14.311Z,55.6
2018-09-12T07:59:21.540Z,55.7
2018-09-12T08:00:28.540Z,50.7
2018-09-12T08:01:35.824Z,49.5
2018-09-12T08:02:43.039Z,59.2
2018-09-12T08:03:50.258Z,44.4
2018-09-12T08:04:57.540Z,44.9
2018-09-12T08:06:04.922Z,48.1
2018-09-12T08:07:12.137Z,43.9
2018-09-12T08:08:19.352Z,47
2018-09-12T08:09:26.567Z,51.2
2018-09-12T08:10:33.784Z,50.5
2018-09-12T08:11:41.001Z,42
2018-09-12T08:12:48.217Z,35.8
2018-09-12T08:13:55.439Z,35.2
2018-09-12T08:15:02.653Z,44.3
2018-09-12T08:16:09.594Z,41.9
2018-09-12T08:17:16.812Z,43.2
2018-09-12T08:18:23.756Z,30
2018-09-12T08:19:30.974Z,29.6
2018-09-12T08:20:38.191Z,35
2018-09-12T08:21:45.407Z,34
2018-09-12T08:22:52.620Z,29.6
2018-09-12T08:23:59.839Z,29.6
2018-09-12T08:25:06.780Z,30
2018-09-12T08:26:14.019Z,29.3
2018-09-12T08:27:21.504Z,32.9
2018-09-12T08:28:28.442Z,31.4
2018-09-12T08:29:35.659Z,34.4
2018-09-12T08:30:42.875Z,31.6
2018-09-12T08:31:49.822Z,27.5
2018-09-12T08:32:57.040Z,28
2018-09-12T08:34:04.254Z,27.7
2018-09-12T08:35:11.467Z,30.1
2018-09-12T22:00:06.526Z,93.6
2018-09-12T22:01:13.731Z,94.1
2018-09-12T22:02:20.940Z,90.3
2018-09-12T22:03:28.156Z,93.6
2018-09-12T22:04:35.371Z,93.3
2018-09-12T22:05:42.586Z,92
2018-09-12T22:06:49.795Z,94.7
2018-09-12T22:07:57.081Z,94.3
2018-09-12T22:09:04.499Z,96.9
2018-09-12T22:10:11.720Z,97.2
2018-09-12T22:11:18.927Z,97.9
2018-09-12T22:12:26.143Z,98.9
2018-09-12T22:13:33.356Z,99.9
2018-09-12T22:14:40.569Z,99.9
2018-09-12T22:15:47.780Z,99
2018-09-12T22:16:55.008Z,99.7
2018-09-12T22:18:02.220Z,99.9
2018-09-12T22:19:09.435Z,99.9
2018-09-12T22:20:16.377Z,99.9
2018-09-12T22:21:23.588Z,99.9
2018-09-12T22:22:30.803Z,99.9
2018-09-12T22:23:38.023Z,99.9
2018-09-12T22:24:44.964Z,99.9
2018-09-12T22:25:51.916Z,99.9
2018-09-12T22:26:58.854Z,99.9
2018-09-12T22:28:06.070Z,99.9
2018-09-12T22:29:13.281Z,99.9
2018-09-12T22:30:20.500Z,99.9
2018-09-12T22:31:27.718Z,99.9
2018-09-12T22:32:34.932Z,99.9
2018-09-12T22:33:41.874Z,99.9
2018-09-12T22:34:49.088Z,99.9
2018-09-12T22:35:56.295Z,99.9
2018-09-12T22:37:03.247Z,99.9
2018-09-12T22:38:10.466Z,99.9
2018-09-12T22:39:17.409Z,99.9
2018-09-12T22:40:24.634Z,99.9
2018-09-12T22:41:31.852Z,99.9
2018-09-12T22:42:39.066Z,99.9
2018-09-12T22:43:46.277Z,99.9
2018-09-12T22:44:53.490Z,99.9
2018-09-12T22:46:00.705Z,99.9
2018-09-12T22:47:07.927Z,99.9
2018-09-12T22:48:15.140Z,99.9
2018-09-12T22:49:22.354Z,99.9
2018-09-12T22:50:29.300Z,99.9
2018-09-12T22:51:36.508Z,99.9
2018-09-12T22:52:43.732Z,99.9
2018-09-12T22:53:50.946Z,99.9
2018-09-12T22:54:58.203Z,99.9
2018-09-12T22:56:05.416Z,99.9
2018-09-12T22:57:12.627Z,99.9
2018-09-12T22:58:19.843Z,99.9
2018-09-12T22:59:27.056Z,99.9
2018-09-12T23:00:34.268Z,99.9
2018-09-12T23:01:41.206Z,99.9
2018-09-12T23:02:48.419Z,99.9
2018-09-12T23:03:55.632Z,99.9
2018-09-12T23:05:02.866Z,99.9
2018-09-12T23:06:10.082Z,99.9
2018-09-12T23:07:17.033Z,99.9
2018-09-12T23:08:24.248Z,99.9
2018-09-12T23:09:31.471Z,99.9
2018-09-12T23:10:38.687Z,99.9
2018-09-12T23:11:45.898Z,99.9
2018-09-12T23:12:52.833Z,99.9
2018-09-12T23:13:59.782Z,99.9
2018-09-12T23:15:06.995Z,99.9
2018-09-12T23:16:14.206Z,99.9
2018-09-12T23:17:20.873Z,99.9
2018-09-12T23:18:27.821Z,99.9
2018-09-12T23:19:35.027Z,99.9
2018-09-12T23:20:42.243Z,99.9
2018-09-12T23:21:48.914Z,99.9
2018-09-12T23:22:56.139Z,99.9
2018-09-12T23:24:03.080Z,99.9
2018-09-12T23:25:10.292Z,99.9
2018-09-12T23:26:17.503Z,99.9
2018-09-12T23:27:24.754Z,99.9
2018-09-12T23:28:31.969Z,99.9
2018-09-12T23:29:39.183Z,99.9
2018-09-12T23:30:46.403Z,99.9
2018-09-12T23:31:53.349Z,99.9
2018-09-12T23:33:00.567Z,99.9
2018-09-12T23:34:07.514Z,99.9
2018-09-12T23:35:14.725Z,99.9
2018-09-12T23:36:21.937Z,99.9
2018-09-12T23:37:28.876Z,99.9
2018-09-12T23:38:35.813Z,99.9
2018-09-12T23:39:43.035Z,99.9
2018-09-12T23:40:50.461Z,99.9
2018-09-12T23:41:57.721Z,99.9
2018-09-12T23:43:04.934Z,99.9
2018-09-12T23:44:12.145Z,99.9
2018-09-12T23:45:19.359Z,99.9
2018-09-12T23:46:26.567Z,99.9
2018-09-12T23:47:33.509Z,99.9
2018-09-12T23:48:40.453Z,99.9
2018-09-12T23:49:47.675Z,99.9
2018-09-12T23:50:54.890Z,99.9
2018-09-12T23:52:02.106Z,99.9
2018-09-12T23:53:09.046Z,99.9
2018-09-12T23:54:16.268Z,99.9
2018-09-12T23:55:23.513Z,99.9
2018-09-12T23:56:30.722Z,99.9
2018-09-12T23:57:37.937Z,99.9
2018-09-12T23:58:45.173Z,99.9
2018-09-12T23:59:52.383Z,99.9
